createdAt,value
2022-12-01T00:01:19.744Z,97070.09
2022-12-01T00:03:47.617Z,97075.38
2022-12-01T00:06:17.841Z,97065.38
2022-12-01T00:09:07.500Z,97081.53
2022-12-01T00:11:35.702Z,97071.94
2022-12-01T00:14:03.692Z,97067.97
2022-12-01T00:16:32.987Z,97073.22
2022-12-01T00:19:00.978Z,97071.50
2022-12-01T00:21:29.325Z,97070.72
2022-12-01T00:23:58.923Z,97070.31
2022-12-01T00:26:27.951Z,97080.97
2022-12-01T00:28:56.914Z,97066.31
2022-12-01T00:31:24.962Z,97072.47
2022-12-01T00:33:54.515Z,97071.63
2022-12-01T00:36:23.929Z,97063.59
2022-12-01T00:38:53.692Z,97074.09
2022-12-01T00:41:22.014Z,97070.66
2022-12-01T00:43:51.216Z,97075.28
2022-12-01T00:46:20.045Z,97068.88
2022-12-01T00:48:48.028Z,97069.56
2022-12-01T00:51:17.214Z,97069.22
2022-12-01T00:53:45.937Z,97076.31
2022-12-01T00:56:13.796Z,97074.38
2022-12-01T00:58:41.669Z,97067.44
2022-12-01T01:01:09.609Z,97072.63
2022-12-01T01:03:37.847Z,97067.44
2022-12-01T01:06:07.746Z,97072.53
2022-12-01T01:08:37.719Z,97069.16
2022-12-01T01:11:07.698Z,97066.59
2022-12-01T01:13:37.033Z,97077.13
2022-12-01T01:16:07.229Z,97077.19
2022-12-01T01:18:35.803Z,97076.13
2022-12-01T01:21:05.869Z,97092.88
2022-12-01T01:23:33.912Z,97078.16
2022-12-01T01:26:05.214Z,97086.66
2022-12-01T01:28:33.293Z,97083.53
2022-12-01T01:31:01.589Z,97084.94
2022-12-01T01:33:31.130Z,97083.25
2022-12-01T01:36:00.234Z,97086.78
2022-12-01T01:38:28.314Z,97087.69
2022-12-01T01:40:56.540Z,97090.50
2022-12-01T01:46:19.955Z,97092.97
2022-12-01T01:48:51.977Z,97087.66
2022-12-01T01:51:23.996Z,97086.97
2022-12-01T01:53:55.530Z,97081.03
2022-12-01T01:56:24.150Z,97082.81
2022-12-01T01:58:53.468Z,97087.16
2022-12-01T02:01:22.867Z,97088.53
2022-12-01T02:03:55.186Z,97092.59
2022-12-01T02:06:24.708Z,97086.31
2022-12-01T02:08:52.781Z,97087.06
2022-12-01T02:11:58.035Z,97081.94
2022-12-01T02:14:49.289Z,97086.53
2022-12-01T02:17:30.384Z,97074.59
2022-12-01T02:20:23.748Z,97076.25
2022-12-01T02:23:09.744Z,97079.88
2022-12-01T02:25:49.363Z,97076.84
2022-12-01T02:28:36.158Z,97077.19
2022-12-01T02:31:15.115Z,97068.56
2022-12-01T02:33:52.476Z,97074.31
2022-12-01T02:36:29.566Z,97074.19
2022-12-01T02:39:04.815Z,97064.34
2022-12-01T02:41:38.629Z,97073.75
2022-12-01T02:44:14.714Z,97068.38
2022-12-01T02:46:51.384Z,97069.56
2022-12-01T02:49:25.042Z,97064.13
2022-12-01T02:51:55.575Z,97071.38
2022-12-01T02:54:24.820Z,97076.41
2022-12-01T02:56:53.930Z,97069.81
2022-12-01T02:59:21.748Z,97065.91
2022-12-01T03:02:02.011Z,97079.22
2022-12-01T03:04:47.712Z,97073.16
2022-12-01T03:07:33.276Z,97072.31
2022-12-01T03:10:10.462Z,97066.16
2022-12-01T03:12:43.137Z,97068.81
2022-12-01T03:15:19.546Z,97061.06
2022-12-01T03:18:04.304Z,97056.56
2022-12-01T03:20:36.480Z,97058.19
2022-12-01T03:23:09.795Z,97056.63
2022-12-01T03:25:40.910Z,97065.38
2022-12-01T03:28:25.095Z,97063.69
2022-12-01T03:30:58.831Z,97055.97
2022-12-01T03:33:35.002Z,97060.47
2022-12-01T03:36:08.240Z,97060.28
2022-12-01T03:38:38.510Z,97057.66
2022-12-01T03:41:12.081Z,97059.69
2022-12-01T03:43:42.880Z,97066.69
2022-12-01T03:46:17.731Z,97068.31
2022-12-01T03:48:47.815Z,97063.13
2022-12-01T03:51:22.206Z,97066.53
2022-12-01T03:53:55.892Z,97062.25
2022-12-01T03:56:30.616Z,97069.19
2022-12-01T03:59:01.616Z,97062.72
2022-12-01T04:01:32.728Z,97060.81
2022-12-01T04:04:07.249Z,97061.06
2022-12-01T04:06:36.025Z,97063.34
2022-12-01T04:09:04.292Z,97062.53
2022-12-01T04:11:49.789Z,97066.72
2022-12-01T04:14:17.689Z,97068.09
2022-12-01T04:16:45.579Z,97068.03
2022-12-01T04:19:14.949Z,97070.88
2022-12-01T04:21:42.815Z,97068.22
2022-12-01T04:24:10.696Z,97064.63
2022-12-01T04:26:38.732Z,97062.06
2022-12-01T04:29:09.465Z,97065.34
2022-12-01T04:31:37.907Z,97067.56
2022-12-01T04:34:06.053Z,97069.25
2022-12-01T04:36:36.265Z,97074.88
2022-12-01T04:39:04.936Z,97076.91
2022-12-01T04:41:32.822Z,97071.88
2022-12-01T04:44:00.661Z,97075.13
2022-12-01T04:46:28.772Z,97078.72
2022-12-01T04:48:56.699Z,97084.59
2022-12-01T04:51:24.953Z,97078.66
2022-12-01T04:53:54.189Z,97071.81
2022-12-01T04:56:22.606Z,97083.16
2022-12-01T04:58:50.542Z,97076.44
2022-12-01T05:01:19.568Z,97077.47
2022-12-01T05:03:50.200Z,97079.03
2022-12-01T05:06:19.959Z,97080.06
2022-12-01T05:08:47.956Z,97082.03
2022-12-01T05:11:18.135Z,97079.19
2022-12-01T05:13:48.171Z,97082.69
2022-12-01T05:16:17.823Z,97082.69
2022-12-01T05:18:50.359Z,97086.91
2022-12-01T05:21:18.306Z,97082.69
2022-12-01T05:23:46.530Z,97077.94
2022-12-01T05:26:14.454Z,97078.44
2022-12-01T05:28:43.681Z,97083.34
2022-12-01T05:31:11.575Z,97084.22
2022-12-01T05:33:39.570Z,97079.19
2022-12-01T05:36:09.475Z,97083.28
2022-12-01T05:38:37.795Z,97082.69
2022-12-01T05:41:05.911Z,97086.69
2022-12-01T05:43:33.861Z,97078.91
2022-12-01T05:46:03.327Z,97079.19
2022-12-01T05:48:31.302Z,97083.47
2022-12-01T05:50:59.231Z,97070.41
2022-12-01T05:53:27.244Z,97075.50
2022-12-01T05:55:55.872Z,97080.13
2022-12-01T05:58:23.997Z,97080.00
2022-12-01T06:00:51.864Z,97079.88
2022-12-01T06:03:21.138Z,97077.47
2022-12-01T06:05:48.977Z,97083.66
2022-12-01T06:08:17.112Z,97085.34
2022-12-01T06:10:45.592Z,97089.53
2022-12-01T06:13:13.581Z,97092.09
2022-12-01T06:15:41.419Z,97082.53
2022-12-01T06:18:09.729Z,97089.34
2022-12-01T06:20:38.900Z,97091.44
2022-12-01T06:23:06.783Z,97091.53
2022-12-01T06:25:34.691Z,97094.94
2022-12-01T06:28:02.816Z,97087.00
2022-12-01T06:30:30.668Z,97092.22
2022-12-01T06:32:58.557Z,97088.16
2022-12-01T06:35:26.488Z,97103.03
2022-12-01T06:37:55.882Z,97089.91
2022-12-01T06:40:23.861Z,97104.66
2022-12-01T06:42:51.793Z,97111.56
2022-12-01T06:45:19.821Z,97113.28
2022-12-01T06:47:48.455Z,97110.94
2022-12-01T06:50:16.398Z,97109.03
2022-12-01T06:52:44.346Z,97110.38
2022-12-01T06:55:13.781Z,97110.16
2022-12-01T06:57:43.231Z,97119.84
2022-12-01T07:00:13.477Z,97112.91
2022-12-01T07:02:41.955Z,97114.00
2022-12-01T07:05:10.587Z,97122.34
2022-12-01T07:07:39.441Z,97128.56
2022-12-01T07:10:08.984Z,97119.56
2022-12-01T07:12:38.325Z,97121.66
2022-12-01T07:15:07.977Z,97122.31
2022-12-01T07:17:35.970Z,97126.72
2022-12-01T07:20:04.151Z,97122.44
2022-12-01T07:22:32.955Z,97128.38
2022-12-01T07:25:01.125Z,97133.72
2022-12-01T07:27:31.096Z,97122.34
2022-12-01T07:30:00.475Z,97136.25
2022-12-01T07:32:28.339Z,97137.03
2022-12-01T07:34:56.175Z,97139.41
2022-12-01T07:37:24.053Z,97122.25
2022-12-01T07:39:51.957Z,97144.06
2022-12-01T07:42:19.830Z,97142.16
2022-12-01T07:44:47.674Z,97134.34
2022-12-01T07:47:17.006Z,97143.19
2022-12-01T07:49:44.884Z,97141.38
2022-12-01T07:52:12.822Z,97145.66
2022-12-01T07:54:40.741Z,97150.78
2022-12-01T07:57:08.594Z,97147.44
2022-12-01T07:59:36.469Z,97152.47
2022-12-01T08:02:04.354Z,97156.88
2022-12-01T08:04:33.560Z,97149.81
2022-12-01T08:07:01.425Z,97153.31
2022-12-01T08:09:29.308Z,97150.69
2022-12-01T08:11:57.201Z,97145.34
2022-12-01T08:14:24.983Z,97149.72
2022-12-01T08:16:52.874Z,97156.09
2022-12-01T08:19:20.782Z,97150.03
2022-12-01T08:21:50.073Z,97155.91
2022-12-01T08:24:18.059Z,97149.06
2022-12-01T08:26:45.932Z,97159.44
2022-12-01T08:29:19.720Z,97159.44
2022-12-01T08:31:48.128Z,97159.31
2022-12-01T08:34:16.022Z,97155.75
2022-12-01T08:36:43.905Z,97159.38
2022-12-01T08:39:13.145Z,97168.84
2022-12-01T08:41:41.280Z,97160.97
2022-12-01T08:44:10.812Z,97155.78
2022-12-01T08:46:39.259Z,97156.72
2022-12-01T08:49:07.970Z,97158.59
2022-12-01T08:51:36.378Z,97179.28
2022-12-01T08:54:04.626Z,97176.75
2022-12-01T08:56:36.849Z,97168.25
2022-12-01T08:59:05.811Z,97180.03
2022-12-01T09:01:34.223Z,97169.72
2022-12-01T09:04:09.063Z,97172.16
2022-12-01T09:06:40.787Z,97173.34
2022-12-01T09:09:13.362Z,97168.91
2022-12-01T09:11:43.824Z,97169.81
2022-12-01T09:14:12.178Z,97171.34
2022-12-01T09:16:40.638Z,97167.16
2022-12-01T09:19:08.604Z,97177.38
2022-12-01T09:21:38.094Z,97179.91
2022-12-01T09:24:08.020Z,97172.25
2022-12-01T09:26:35.977Z,97177.28
2022-12-01T09:29:08.664Z,97177.75
2022-12-01T09:31:37.038Z,97172.25
2022-12-01T09:34:06.570Z,97167.91
2022-12-01T09:36:36.304Z,97171.28
2022-12-01T09:39:05.267Z,97173.69
2022-12-01T09:41:36.656Z,97172.31
2022-12-01T09:44:14.371Z,97169.44
2022-12-01T09:46:45.868Z,97169.34
2022-12-01T09:49:18.670Z,97172.16
2022-12-01T09:51:47.013Z,97168.75
2022-12-01T09:54:15.674Z,97174.66
2022-12-01T09:56:46.857Z,97165.28
2022-12-01T09:59:22.478Z,97175.41
2022-12-01T10:01:54.727Z,97176.03
2022-12-01T10:04:29.246Z,97168.56
2022-12-01T10:07:02.316Z,97171.88
2022-12-01T10:09:39.265Z,97161.41
2022-12-01T10:12:14.993Z,97160.38
2022-12-01T10:14:46.381Z,97153.44
2022-12-01T10:17:26.299Z,97152.53
2022-12-01T10:20:00.860Z,97153.34
2022-12-01T10:22:50.975Z,97151.75
2022-12-01T10:25:23.550Z,97152.47
2022-12-01T10:28:05.749Z,97143.06
2022-12-01T10:30:41.447Z,97138.63
2022-12-01T10:33:20.266Z,97134.00
2022-12-01T10:35:48.148Z,97134.09
2022-12-01T10:38:25.303Z,97136.63
2022-12-01T10:40:54.714Z,97134.38
2022-12-01T10:43:28.774Z,97130.72
2022-12-01T10:46:01.132Z,97129.75
2022-12-01T10:48:29.170Z,97121.88
2022-12-01T10:51:14.681Z,97132.56
2022-12-01T10:53:42.603Z,97126.81
2022-12-01T10:56:15.023Z,97130.78
2022-12-01T10:58:48.112Z,97126.25
2022-12-01T11:01:21.583Z,97127.28
2022-12-01T11:03:56.989Z,97121.88
2022-12-01T11:06:29.173Z,97114.88
2022-12-01T11:08:59.479Z,97114.75
2022-12-01T11:11:34.021Z,97112.09
2022-12-01T11:14:04.651Z,97116.53
2022-12-01T11:16:40.408Z,97112.75
2022-12-01T11:19:11.103Z,97112.22
2022-12-01T11:21:47.705Z,97114.56
2022-12-01T11:24:29.002Z,97106.22
2022-12-01T11:26:58.541Z,97111.97
2022-12-01T11:29:33.053Z,97101.78
2022-12-01T11:32:03.580Z,97097.41
2022-12-01T11:34:35.442Z,97099.44
2022-12-01T11:37:07.687Z,97098.47
2022-12-01T11:39:38.834Z,97096.97
2022-12-01T11:42:16.865Z,97095.91
2022-12-01T11:44:52.138Z,97083.69
2022-12-01T11:47:24.760Z,97092.28
2022-12-01T11:49:55.105Z,97089.78
2022-12-01T11:52:27.246Z,97086.25
2022-12-01T11:55:04.407Z,97094.75
2022-12-01T11:57:38.617Z,97088.63
2022-12-01T12:00:14.703Z,97082.56
2022-12-01T12:02:54.637Z,97090.41
2022-12-01T12:05:45.356Z,97079.66
2022-12-01T12:08:25.625Z,97080.19
2022-12-01T12:11:03.202Z,97079.81
2022-12-01T12:14:04.069Z,97088.06
2022-12-01T12:16:44.279Z,97081.50
2022-12-01T12:19:34.013Z,97077.34
2022-12-01T12:22:20.234Z,97084.03
2022-12-01T12:25:02.519Z,97083.91
2022-12-01T12:27:41.059Z,97080.59
2022-12-01T12:30:29.754Z,97075.19
2022-12-01T12:33:20.700Z,97083.91
2022-12-01T12:35:56.988Z,97077.09
2022-12-01T12:38:57.895Z,97069.16
2022-12-01T12:41:34.738Z,97058.53
2022-12-01T12:44:25.073Z,97061.97
2022-12-01T12:47:03.439Z,97059.22
2022-12-01T12:49:40.216Z,97062.47
2022-12-01T12:52:14.112Z,97064.00
2022-12-01T12:54:48.868Z,97061.38
2022-12-01T12:57:30.571Z,97057.06
2022-12-01T13:00:05.856Z,97056.22
2022-12-01T13:02:40.659Z,97055.16
2022-12-01T13:05:15.901Z,97047.97
2022-12-01T13:07:50.344Z,97065.63
2022-12-01T13:10:28.093Z,97059.41
2022-12-01T13:13:02.602Z,97057.63
2022-12-01T13:15:31.597Z,97060.97
2022-12-01T13:18:05.647Z,97062.94
2022-12-01T13:20:37.655Z,97063.72
2022-12-01T13:23:10.003Z,97059.34
2022-12-01T13:25:41.007Z,97058.81
2022-12-01T13:28:28.428Z,97055.88
2022-12-01T13:31:05.856Z,97046.50
2022-12-01T13:33:37.289Z,97057.97
2022-12-01T13:39:03.691Z,97047.13
2022-12-01T13:41:34.300Z,97046.34
2022-12-01T13:44:05.516Z,97044.72
2022-12-01T13:46:52.036Z,97048.81
2022-12-01T13:49:42.138Z,97046.00
2022-12-01T13:52:29.284Z,97049.53
2022-12-01T13:55:21.692Z,97044.38
2022-12-01T13:57:51.309Z,97040.97
2022-12-01T14:00:26.123Z,97041.06
2022-12-01T14:03:30.700Z,97049.94
2022-12-01T14:06:09.642Z,97044.47
2022-12-01T14:08:45.275Z,97042.59
2022-12-01T14:11:22.426Z,97046.41
2022-12-01T14:13:56.093Z,97050.94
2022-12-01T14:16:24.680Z,97047.97
2022-12-01T14:18:57.121Z,97047.06
2022-12-01T14:21:46.904Z,97045.38
2022-12-01T14:24:28.448Z,97042.91
2022-12-01T14:26:58.040Z,97046.41
2022-12-01T14:29:32.998Z,97047.53
2022-12-01T14:32:26.657Z,97052.03
2022-12-01T14:35:02.527Z,97049.88
2022-12-01T14:37:38.436Z,97042.31
2022-12-01T14:40:13.550Z,97047.47
2022-12-01T14:43:03.011Z,97051.13
2022-12-01T14:45:39.665Z,97044.13
2022-12-01T14:48:13.787Z,97054.59
2022-12-01T14:50:46.806Z,97052.97
2022-12-01T14:53:26.054Z,97054.59
2022-12-01T14:55:57.588Z,97041.59
2022-12-01T14:58:29.504Z,97046.06
2022-12-01T15:01:08.344Z,97054.13
2022-12-01T15:03:42.490Z,97047.34
2022-12-01T15:06:11.556Z,97046.16
2022-12-01T15:08:45.696Z,97049.41
2022-12-01T15:11:23.550Z,97050.16
2022-12-01T15:13:54.575Z,97041.72
2022-12-01T15:16:24.333Z,97043.94
2022-12-01T15:18:52.952Z,97045.38
2022-12-01T15:21:23.887Z,97044.69
2022-12-01T15:23:57.167Z,97044.44
2022-12-01T15:26:27.516Z,97036.50
2022-12-01T15:29:16.924Z,97041.81
2022-12-01T15:31:47.331Z,97038.22
2022-12-01T15:34:18.538Z,97038.06
2022-12-01T15:36:47.180Z,97046.91
2022-12-01T15:39:17.557Z,97039.19
2022-12-01T15:41:47.983Z,97040.09
2022-12-01T15:44:22.525Z,97041.66
2022-12-01T15:46:50.629Z,97047.88
2022-12-01T15:49:20.429Z,97052.19
2022-12-01T15:51:49.462Z,97056.41
2022-12-01T15:54:20.902Z,97052.97
2022-12-01T15:56:53.502Z,97050.50
2022-12-01T15:59:29.817Z,97055.56
2022-12-01T16:01:58.276Z,97043.50
2022-12-01T16:04:28.316Z,97047.78
2022-12-01T16:07:00.707Z,97052.19
2022-12-01T16:09:33.192Z,97049.56
2022-12-01T16:12:06.425Z,97051.38
2022-12-01T16:14:37.350Z,97046.09
2022-12-01T16:17:05.833Z,97053.00
2022-12-01T16:19:35.970Z,97047.72
2022-12-01T16:22:16.871Z,97053.00
2022-12-01T16:24:48.502Z,97048.78
2022-12-01T16:27:22.832Z,97052.13
2022-12-01T16:29:54.721Z,97044.34
2022-12-01T16:32:25.010Z,97052.19
2022-12-01T16:34:54.254Z,97044.34
2022-12-01T16:37:23.343Z,97051.19
2022-12-01T16:39:51.490Z,97045.06
2022-12-01T16:42:21.740Z,97055.56
2022-12-01T16:44:50.579Z,97050.41
2022-12-01T16:47:21.796Z,97049.38
2022-12-01T16:49:50.322Z,97048.47
2022-12-01T16:55:23.789Z,97045.13
2022-12-01T16:57:52.325Z,97052.03
2022-12-01T17:00:20.860Z,97043.56
2022-12-01T17:02:50.446Z,97047.28
2022-12-01T17:05:18.417Z,97048.91
2022-12-01T17:07:46.343Z,97053.09
2022-12-01T17:10:15.011Z,97050.34
2022-12-01T17:12:42.849Z,97053.00
2022-12-01T17:15:12.000Z,97054.94
2022-12-01T17:17:40.036Z,97056.34
2022-12-01T17:20:11.314Z,97051.34
2022-12-01T17:22:39.281Z,97052.47
2022-12-01T17:25:09.591Z,97055.06
2022-12-01T17:27:37.590Z,97056.81
2022-12-01T17:30:06.650Z,97053.41
2022-12-01T17:32:34.616Z,97057.59
2022-12-01T17:35:02.541Z,97053.31
2022-12-01T17:37:31.831Z,97050.59
2022-12-01T17:39:59.663Z,97051.66
2022-12-01T17:42:27.449Z,97048.06
2022-12-01T17:44:55.293Z,97054.34
2022-12-01T17:47:24.156Z,97046.69
2022-12-01T17:49:51.984Z,97051.13
2022-12-01T17:52:22.163Z,97057.94
2022-12-01T17:54:56.417Z,97057.00
2022-12-01T17:57:24.312Z,97049.06
2022-12-01T17:59:52.168Z,97059.50
2022-12-01T18:02:20.726Z,97054.41
2022-12-01T18:04:49.013Z,97056.16
2022-12-01T18:07:17.232Z,97062.16
2022-12-01T18:09:45.302Z,97063.16
2022-12-01T18:12:14.468Z,97063.16
2022-12-01T18:14:42.323Z,97060.41
2022-12-01T18:17:10.205Z,97056.22
2022-12-01T18:19:38.225Z,97067.41
2022-12-01T18:22:06.066Z,97056.22
2022-12-01T18:24:34.013Z,97054.41
2022-12-01T18:27:01.851Z,97059.75
2022-12-01T18:29:31.143Z,97064.84
2022-12-01T18:32:00.912Z,97064.13
2022-12-01T18:34:30.384Z,97056.16
2022-12-01T18:36:58.559Z,97057.78
2022-12-01T18:39:26.559Z,97058.84
2022-12-01T18:41:55.349Z,97054.28
2022-12-01T18:44:23.230Z,97044.94
2022-12-01T18:46:52.707Z,97049.91
2022-12-01T18:49:21.181Z,97051.78
2022-12-01T18:51:49.001Z,97041.22
2022-12-01T18:54:17.588Z,97043.94
2022-12-01T18:56:45.394Z,97035.06
2022-12-01T18:59:13.880Z,97037.69
2022-12-01T19:01:45.872Z,97028.28
2022-12-01T19:04:16.913Z,97031.69
2022-12-01T19:06:46.639Z,97033.69
2022-12-01T19:09:16.725Z,97030.19
2022-12-01T19:11:44.921Z,97033.66
2022-12-01T19:14:15.735Z,97036.31
2022-12-01T19:16:43.752Z,97031.97
2022-12-01T19:19:12.481Z,97034.56
2022-12-01T19:21:42.796Z,97036.31
2022-12-01T19:24:10.725Z,97036.78
2022-12-01T19:26:38.754Z,97034.03
2022-12-01T19:29:06.695Z,97034.63
2022-12-01T19:31:34.659Z,97034.78
2022-12-01T19:34:04.408Z,97031.03
2022-12-01T19:36:32.296Z,97029.59
2022-12-01T19:39:04.398Z,97032.34
2022-12-01T19:41:38.049Z,97033.66
2022-12-01T19:44:06.437Z,97034.78
2022-12-01T19:46:34.579Z,97035.59
2022-12-01T19:49:03.260Z,97034.56
2022-12-01T19:51:35.012Z,97037.19
2022-12-01T19:54:05.393Z,97028.41
2022-12-01T19:56:33.319Z,97042.91
2022-12-01T19:59:01.208Z,97036.00
2022-12-01T20:01:30.488Z,97037.81
2022-12-01T20:03:59.649Z,97031.81
2022-12-01T20:06:29.203Z,97027.56
2022-12-01T20:09:01.447Z,97036.00
2022-12-01T20:11:32.709Z,97029.84
2022-12-01T20:14:00.766Z,97029.22
2022-12-01T20:16:30.523Z,97034.28
2022-12-01T20:19:01.500Z,97028.28
2022-12-01T20:21:31.452Z,97030.78
2022-12-01T20:24:01.063Z,97031.41
2022-12-01T20:26:34.082Z,97030.63
2022-12-01T20:29:04.674Z,97035.06
2022-12-01T20:31:33.706Z,97036.78
2022-12-01T20:34:04.536Z,97030.78
2022-12-01T20:36:32.849Z,97030.63
2022-12-01T20:39:00.688Z,97036.66
2022-12-01T20:41:30.097Z,97031.28
2022-12-01T20:44:00.153Z,97028.75
2022-12-01T20:46:31.806Z,97028.81
2022-12-01T20:48:59.683Z,97033.09
2022-12-01T20:51:27.635Z,97032.91
2022-12-01T20:54:26.383Z,97029.44
2022-12-01T20:56:44.788Z,97033.88
2022-12-01T20:59:13.145Z,97036.66
2022-12-01T21:01:41.182Z,97033.88
2022-12-01T21:04:09.073Z,97034.19
2022-12-01T21:06:37.046Z,97025.34
2022-12-01T21:09:07.449Z,97024.44
2022-12-01T21:11:55.152Z,97019.25
2022-12-01T21:14:38.137Z,97022.47
2022-12-01T21:17:18.739Z,97026.06
2022-12-01T21:19:53.415Z,97017.31
2022-12-01T21:22:21.287Z,97018.16
2022-12-01T21:24:53.186Z,97014.75
2022-12-01T21:27:21.347Z,97010.31
2022-12-01T21:29:51.320Z,97011.16
2022-12-01T21:32:20.953Z,97004.38
2022-12-01T21:34:49.818Z,97014.97
2022-12-01T21:37:22.347Z,97006.97
2022-12-01T21:39:51.867Z,97016.44
2022-12-01T21:42:21.781Z,97019.78
2022-12-01T21:44:51.201Z,97015.75
2022-12-01T21:47:21.517Z,97012.28
2022-12-01T21:49:52.173Z,97006.97
2022-12-01T21:52:22.655Z,97006.97
2022-12-01T21:54:51.053Z,97011.31
2022-12-01T21:57:34.513Z,97001.13
2022-12-01T22:00:27.066Z,97000.28
2022-12-01T22:03:28.056Z,97000.22
2022-12-01T22:06:28.279Z,96997.41
2022-12-01T22:08:50.767Z,96996.41
2022-12-01T22:11:21.919Z,96992.09
2022-12-01T22:13:54.964Z,96989.63
2022-12-01T22:16:30.169Z,96997.47
2022-12-01T22:19:00.720Z,96989.00
2022-12-01T22:21:32.937Z,96991.47
2022-12-01T22:24:19.163Z,96995.69
2022-12-01T22:26:49.136Z,96991.19
2022-12-01T22:29:31.050Z,96989.63
2022-12-01T22:32:30.329Z,96992.81
2022-12-01T22:35:01.821Z,96988.78
2022-12-01T22:37:37.696Z,96988.69
2022-12-01T22:40:34.645Z,96992.09
2022-12-01T22:43:27.653Z,96990.41
2022-12-01T22:46:06.375Z,96987.81
2022-12-01T22:48:38.934Z,96985.09
2022-12-01T22:51:37.647Z,96987.72
2022-12-01T22:54:25.321Z,96977.41
2022-12-01T22:57:02.946Z,96985.19
2022-12-01T22:59:34.789Z,96984.34
2022-12-01T23:02:13.505Z,96976.50
2022-12-01T23:04:46.126Z,96977.34
2022-12-01T23:07:33.353Z,96970.41
2022-12-01T23:10:10.348Z,96971.34
2022-12-01T23:12:38.927Z,96969.38
2022-12-01T23:15:22.123Z,96966.75
2022-12-01T23:17:50.662Z,96973.56
2022-12-01T23:20:32.464Z,96968.44
2022-12-01T23:23:02.415Z,96970.16
2022-12-01T23:25:30.340Z,96967.59
2022-12-01T23:28:01.320Z,96962.31
2022-12-01T23:30:29.127Z,96960.53
2022-12-01T23:33:22.922Z,96956.47
2022-12-01T23:35:56.895Z,96955.47
2022-12-01T23:38:26.161Z,96956.31
2022-12-01T23:40:56.732Z,96958.00
2022-12-01T23:43:28.218Z,96953.69
2022-12-01T23:46:04.051Z,96961.28
2022-12-01T23:48:36.313Z,96947.00
2022-12-01T23:51:06.154Z,96959.84
2022-12-01T23:53:34.336Z,96948.47
2022-12-01T23:56:13.031Z,96942.47
2022-12-01T23:58:40.939Z,96946.78
